KCLM/CLM METAR and TAF weather

Enter ICAO airport designator
Station Type Date Time Source
KCLM METAR 2022/06/27 16:53 UTC NOAA

KCLM 271653Z AUTO 09005KT 10SM CLR 24/12 A2997 RMK AO2 SLP146 T02390117


Station Type Date Time Source
KCLM Decoded METAR 2022/06/27 16:53 UTC NOAA

PORT ANGELES FAIRCHILD INTERNATIONAL , WA, United States (KCLM) 48-07N 123-30W 85M
Jun 27, 2022 - 12:53 PM EDT / 2022.06.27 1653 UTC
Wind: from the E (090 degrees) at 6 MPH (5 KT):0
Visibility: 10 mile(s):0
Sky conditions: clear
Temperature: 75.0 F (23.9 C)
Dew Point: 53.1 F (11.7 C)
Relative Humidity: 46%
Pressure (altimeter): 29.97 in. Hg (1014 hPa)
ob: KCLM 271653Z AUTO 09005KT 10SM CLR 24/12 A2997 RMK AO2 SLP146 T02390117
cycle: 17

Station Type Date Time Source
KCLM TAF 2022/06/27 12:39 UTC NOAA

TAF KCLM 271136Z 2712/2812 24006KT P6SM SKC
FM271700 VRB05KT P6SM SCT200
FM280000 27010KT P6SM FEW120 BKN200

Example: see airport list